Time;durP1;ratioP1;P1;durP2;ratioP2;P2;SDS_P1;SDS_P2;PMS_P1;PMS_P2;Temp;Humidity;BMP_temperature;BMP_pressure;BME280_temperature;BME280_humidity;BME280_pressure;Samples;Min_cycle;Max_cycle;Signal;HPM_P1;HPM_P2
2023/07/05 00:01:58;;;;;;;7.32;4.60;;;19.60;1.00;;;;;;7387070;19;20018;-67
2023/07/05 00:04:28;;;;;;;6.50;4.15;;;19.40;1.00;;;;;;7386669;19;20007;-68
2023/07/05 00:06:57;;;;;;;7.60;4.53;;;19.60;1.00;;;;;;7386987;19;20021;-67
2023/07/05 00:09:27;;;;;;;6.72;4.10;;;19.40;1.00;;;;;;7389635;19;20014;-67
2023/07/05 00:11:57;;;;;;;7.88;4.20;;;19.30;1.00;;;;;;7394266;19;20029;-68
2023/07/05 00:14:27;;;;;;;7.53;4.00;;;19.30;1.00;;;;;;7392274;19;20086;-68
2023/07/05 00:17:00;;;;;;;7.75;4.10;;;19.20;1.00;;;;;;7392779;19;20034;-67
2023/07/05 00:19:30;;;;;;;6.93;4.00;;;19.20;1.00;;;;;;7394958;19;20014;-68
2023/07/05 00:22:00;;;;;;;6.97;4.22;;;19.10;1.00;;;;;;7394362;19;20011;-68
2023/07/05 00:24:30;;;;;;;6.78;4.10;;;19.00;1.00;;;;;;7392860;19;20027;-68
2023/07/05 00:26:59;;;;;;;7.03;4.03;;;18.90;1.00;;;;;;7394199;19;20071;-68
2023/07/05 00:29:29;;;;;;;6.00;4.00;;;19.00;1.00;;;;;;7394507;19;20015;-68
2023/07/05 00:32:02;;;;;;;6.20;3.90;;;18.80;1.00;;;;;;7394226;19;20014;-67
2023/07/05 00:34:32;;;;;;;4.28;3.75;;;18.90;1.00;;;;;;7392825;19;20010;-68
2023/07/05 00:37:02;;;;;;;9.02;4.25;;;18.90;1.00;;;;;;7393452;19;20022;-68
2023/07/05 00:39:31;;;;;;;7.13;3.83;;;18.90;1.00;;;;;;7394204;19;20011;-68
2023/07/05 00:42:01;;;;;;;7.43;3.70;;;19.10;1.00;;;;;;7393897;19;20022;-67
2023/07/05 00:44:31;;;;;;;6.32;3.60;;;19.20;1.00;;;;;;7396013;19;20470;-68
2023/07/05 00:47:09;;;;;;;4.55;3.53;;;19.10;1.00;;;;;;7398167;19;20028;-68
2023/07/05 00:49:40;;;;;;;7.38;3.45;;;19.10;1.00;;;;;;7393264;19;20545;-69
2023/07/05 00:52:14;;;;;;;7.63;3.60;;;19.00;1.00;;;;;;7393103;19;20439;-69
2023/07/05 00:54:47;;;;;;;8.52;3.47;;;19.00;1.00;;;;;;7392525;19;20014;-67
2023/07/05 00:57:20;;;;;;;7.53;3.60;;;19.00;1.00;;;;;;7393366;19;20090;-67
2023/07/05 00:59:57;;;;;;;5.53;3.78;;;19.10;1.00;;;;;;7393660;19;20028;-67
2023/07/05 01:02:30;;;;;;;5.07;3.55;;;19.20;1.00;;;;;;7393577;19;20017;-67
2023/07/05 01:05:01;;;;;;;7.32;3.60;;;19.20;1.00;;;;;;7396586;19;20078;-67
2023/07/05 01:07:31;;;;;;;7.45;3.70;;;19.30;1.00;;;;;;7393316;19;20019;-67
2023/07/05 01:10:02;;;;;;;6.53;3.20;;;19.30;1.00;;;;;;7394092;19;20059;-67
2023/07/05 01:12:42;;;;;;;6.57;3.22;;;19.40;1.00;;;;;;7392764;19;20082;-68
2023/07/05 01:15:17;;;;;;;6.32;3.22;;;19.40;1.00;;;;;;7389578;19;20022;-67
2023/07/05 01:18:03;;;;;;;;;;;19.40;1.00;;;;;;7393623;19;20025;-67
2023/07/05 01:20:40;;;;;;;6.15;3.50;;;19.50;1.00;;;;;;7391461;19;19952;-67
2023/07/05 01:23:43;;;;;;;4.43;3.28;;;19.50;1.00;;;;;;7390704;19;20018;-68
2023/07/05 01:26:47;;;;;;;5.20;3.30;;;19.60;1.00;;;;;;7391319;19;20021;-68
2023/07/05 01:29:45;;;;;;;6.00;3.30;;;19.50;1.00;;;;;;7392650;19;20356;-68
2023/07/05 01:32:22;;;;;;;9.93;3.50;;;19.60;1.00;;;;;;7392344;19;20081;-67
2023/07/05 01:34:58;;;;;;;8.35;3.25;;;19.50;1.00;;;;;;7391695;19;20018;-68
2023/07/05 01:37:36;;;;;;;5.35;3.35;;;19.50;1.00;;;;;;7391067;19;20034;-68
2023/07/05 01:40:37;;;;;;;5.50;3.28;;;19.40;1.00;;;;;;7392947;19;20015;-68
2023/07/05 01:43:10;;;;;;;5.43;3.92;;;19.40;1.00;;;;;;7392004;19;20007;-68
2023/07/05 01:45:48;;;;;;;7.65;3.63;;;19.40;1.00;;;;;;7394007;19;20029;-68
2023/07/05 01:48:29;;;;;;;5.72;3.47;;;19.30;1.00;;;;;;7391227;19;20396;-68
2023/07/05 01:51:09;;;;;;;5.00;3.70;;;19.40;1.00;;;;;;7393178;19;20038;-68
2023/07/05 01:53:49;;;;;;;5.45;3.75;;;19.40;1.00;;;;;;7390745;19;20022;-67
2023/07/05 01:56:24;;;;;;;6.22;3.50;;;19.40;1.00;;;;;;7389909;19;20031;-67
2023/07/05 01:58:55;;;;;;;;;;;19.40;1.00;;;;;;7391264;19;20019;-67
2023/07/05 02:01:26;;;;;;;5.07;3.17;;;19.40;1.00;;;;;;7391773;19;19925;-68
2023/07/05 02:04:00;;;;;;;5.75;2.97;;;19.30;1.00;;;;;;7390811;19;20518;-67
2023/07/05 02:06:32;;;;;;;5.15;2.50;;;19.20;1.00;;;;;;7390580;19;20046;-68
2023/07/05 02:09:02;;;;;;;3.53;2.20;;;19.10;1.00;;;;;;7390510;19;20019;-67
2023/07/05 02:11:32;;;;;;;6.47;2.20;;;18.90;1.00;;;;;;7388924;19;20355;-67
2023/07/05 02:14:01;;;;;;;3.40;2.10;;;18.90;1.00;;;;;;7390076;19;20023;-67
2023/07/05 02:16:31;;;;;;;5.40;2.30;;;18.90;1.00;;;;;;7389116;19;20022;-68
2023/07/05 02:19:04;;;;;;;4.47;2.30;;;18.90;1.00;;;;;;7390186;19;20011;-68
2023/07/05 02:21:34;;;;;;;4.65;2.10;;;19.00;1.00;;;;;;7388155;19;20018;-67
2023/07/05 02:24:04;;;;;;;4.78;2.10;;;19.10;1.00;;;;;;7389733;19;20096;-68
2023/07/05 02:26:34;;;;;;;8.25;2.50;;;19.10;1.00;;;;;;7389962;19;20014;-67
2023/07/05 02:29:04;;;;;;;4.80;2.33;;;18.70;1.00;;;;;;7390337;19;20010;-67
2023/07/05 02:31:34;;;;;;;4.35;2.28;;;18.50;1.00;;;;;;7388145;19;20024;-67
2023/07/05 02:34:07;;;;;;;4.07;2.50;;;18.40;1.00;;;;;;7389141;19;20093;-67
2023/07/05 02:36:37;;;;;;;5.10;2.33;;;18.30;1.00;;;;;;7387720;19;20014;-67
2023/07/05 02:39:07;;;;;;;4.30;2.35;;;18.30;1.00;;;;;;7389264;19;20092;-68
2023/07/05 02:41:37;;;;;;;2.85;2.10;;;18.20;1.00;;;;;;7387795;19;20595;-68
2023/07/05 02:44:07;;;;;;;4.03;2.10;;;18.10;1.00;;;;;;7388777;19;20018;-67
2023/07/05 02:46:37;;;;;;;3.65;2.20;;;18.10;1.00;;;;;;7393925;19;20056;-67
2023/07/05 02:49:09;;;;;;;3.90;2.00;;;17.90;1.00;;;;;;7387744;19;20014;-67
2023/07/05 02:51:40;;;;;;;5.18;2.50;;;17.90;1.00;;;;;;7387687;19;20037;-68
2023/07/05 02:54:10;;;;;;;3.25;2.58;;;17.80;1.00;;;;;;7389038;19;20035;-68
2023/07/05 02:56:40;;;;;;;3.30;2.38;;;17.90;1.00;;;;;;7387208;19;20014;-68
2023/07/05 02:59:10;;;;;;;3.60;2.40;;;17.90;1.00;;;;;;7388400;19;20011;-68
2023/07/05 03:01:40;;;;;;;3.78;2.47;;;18.00;1.00;;;;;;7389117;19;20018;-68
2023/07/05 03:04:13;;;;;;;3.60;2.35;;;18.10;1.00;;;;;;7389133;19;20035;-67
2023/07/05 03:06:44;;;;;;;3.08;2.15;;;17.90;1.00;;;;;;7389430;19;20021;-68
2023/07/05 03:09:14;;;;;;;3.63;2.65;;;17.90;1.00;;;;;;7388540;19;20031;-68
2023/07/05 03:11:44;;;;;;;4.75;2.13;;;17.90;1.00;;;;;;7388453;19;20014;-67
2023/07/05 03:14:14;;;;;;;3.13;2.30;;;17.90;1.00;;;;;;7386544;19;20031;-68
2023/07/05 03:16:43;;;;;;;5.30;2.15;;;17.90;1.00;;;;;;7387619;19;20341;-67
2023/07/05 03:19:16;;;;;;;2.47;2.15;;;17.90;1.00;;;;;;7388480;19;20015;-67
2023/07/05 03:21:46;;;;;;;9.75;2.15;;;17.80;1.00;;;;;;7388501;19;20031;-67
2023/07/05 03:24:16;;;;;;;5.38;2.15;;;17.90;1.00;;;;;;7388143;19;20006;-67
2023/07/05 03:26:48;;;;;;;3.45;2.00;;;17.80;1.00;;;;;;7388193;19;20014;-67
2023/07/05 03:29:18;;;;;;;3.47;2.10;;;17.90;1.00;;;;;;7388926;19;20010;-67
2023/07/05 03:31:48;;;;;;;4.68;2.00;;;17.80;1.00;;;;;;7388334;19;20018;-67
2023/07/05 03:34:20;;;;;;;2.88;1.88;;;17.80;1.00;;;;;;7388206;19;20025;-68
2023/07/05 03:36:50;;;;;;;3.28;1.65;;;17.80;1.00;;;;;;7386905;19;20022;-67
2023/07/05 03:39:20;;;;;;;2.20;1.55;;;17.80;1.00;;;;;;7387043;19;20028;-67
2023/07/05 03:41:50;;;;;;;2.70;1.90;;;17.90;1.00;;;;;;7387460;19;20019;-67
2023/07/05 03:44:22;;;;;;;3.08;1.52;;;17.90;1.00;;;;;;7386336;19;20475;-67
2023/07/05 03:46:52;;;;;;;2.90;1.67;;;17.90;1.00;;;;;;7388215;19;20018;-67
2023/07/05 03:49:24;;;;;;;4.03;1.73;;;17.90;1.00;;;;;;7387079;19;20018;-67
2023/07/05 03:51:54;;;;;;;3.30;1.83;;;18.00;1.00;;;;;;7387092;19;20058;-67
2023/07/05 03:54:28;;;;;;;3.35;1.73;;;18.00;1.00;;;;;;7387332;19;20054;-68
2023/07/05 03:56:58;;;;;;;1.77;1.47;;;18.00;1.00;;;;;;7387101;19;20013;-68
2023/07/05 03:59:27;;;;;;;4.53;1.92;;;17.90;1.00;;;;;;7385270;19;20074;-68
2023/07/05 04:01:57;;;;;;;2.58;1.50;;;18.00;1.00;;;;;;7388158;19;20022;-67
2023/07/05 04:04:30;;;;;;;2.78;1.65;;;18.10;1.00;;;;;;7387085;19;20086;-67
2023/07/05 04:07:00;;;;;;;4.40;1.73;;;18.10;1.00;;;;;;7385885;19;20395;-67
2023/07/05 04:09:30;;;;;;;2.05;1.55;;;18.20;1.00;;;;;;7386699;19;20007;-68
2023/07/05 04:12:00;;;;;;;3.42;1.77;;;18.20;1.00;;;;;;7386968;19;20361;-68
2023/07/05 04:14:30;;;;;;;5.70;2.10;;;18.20;1.00;;;;;;7387215;19;20011;-68
2023/07/05 04:17:00;;;;;;;2.63;1.90;;;18.30;1.00;;;;;;7386374;19;20010;-68
2023/07/05 04:19:33;;;;;;;4.57;1.73;;;18.20;1.00;;;;;;7386641;19;20011;-68
2023/07/05 04:22:03;;;;;;;3.50;1.83;;;18.30;1.00;;;;;;7387293;19;20014;-68
2023/07/05 04:24:33;;;;;;;2.47;1.60;;;18.20;1.00;;;;;;7386041;19;20011;-68
2023/07/05 04:27:03;;;;;;;4.65;1.90;;;18.30;1.00;;;;;;7387386;19;20014;-68
2023/07/05 04:29:34;;;;;;;3.65;1.75;;;18.20;1.00;;;;;;7387504;19;20014;-68
2023/07/05 04:32:04;;;;;;;4.30;1.95;;;18.20;1.00;;;;;;7386344;19;20030;-67
2023/07/05 04:34:40;;;;;;;3.25;1.70;;;18.30;1.00;;;;;;7386139;19;20027;-68
2023/07/05 04:37:09;;;;;;;3.72;2.00;;;18.40;1.00;;;;;;7385759;19;20078;-68
2023/07/05 04:39:43;;;;;;;3.00;2.22;;;18.30;1.00;;;;;;7385686;19;20011;-68
2023/07/05 04:42:13;;;;;;;3.17;1.90;;;18.30;1.00;;;;;;7385175;19;20013;-68
2023/07/05 04:44:43;;;;;;;4.40;2.30;;;18.50;1.00;;;;;;7387594;19;20074;-67
2023/07/05 04:47:13;;;;;;;4.82;2.65;;;18.40;1.00;;;;;;7386945;19;20031;-67
2023/07/05 04:49:47;;;;;;;2.40;2.03;;;18.40;1.00;;;;;;7384851;19;20024;-68
2023/07/05 04:52:18;;;;;;;3.97;2.00;;;18.30;1.00;;;;;;7386322;19;20014;-68
2023/07/05 04:54:48;;;;;;;5.80;2.10;;;18.20;1.00;;;;;;7386020;19;20319;-68
2023/07/05 04:57:18;;;;;;;4.53;2.20;;;18.50;1.00;;;;;;7391634;19;20010;-69
2023/07/05 05:00:04;;;;;;;5.18;2.00;;;18.80;1.00;;;;;;7392168;19;20018;-69
2023/07/05 05:02:34;;;;;;;5.38;1.98;;;19.20;1.00;;;;;;7393402;19;20027;-66
2023/07/05 05:05:08;;;;;;;9.70;1.90;;;20.70;1.00;;;;;;7392790;19;20034;-68
2023/07/05 05:07:38;;;;;;;4.47;1.80;;;19.40;1.00;;;;;;7393570;19;20014;-68
2023/07/05 05:10:09;;;;;;;3.97;1.70;;;19.20;1.00;;;;;;7392265;19;20061;-68
2023/07/05 05:12:39;;;;;;;3.10;2.10;;;19.20;1.00;;;;;;7392425;19;20561;-68
2023/07/05 05:15:10;;;;;;;3.70;1.80;;;21.20;1.00;;;;;;7392937;19;20022;-68
2023/07/05 05:17:40;;;;;;;3.85;1.88;;;20.20;1.00;;;;;;7391410;19;20015;-68
2023/07/05 05:20:14;;;;;;;5.70;1.85;;;19.60;1.00;;;;;;7390294;19;20031;-68
2023/07/05 05:22:44;;;;;;;3.90;2.08;;;19.50;1.00;;;;;;7392535;19;20486;-68
2023/07/05 05:25:14;;;;;;;2.63;1.80;;;21.10;1.00;;;;;;7392172;19;20541;-68
2023/07/05 05:27:44;;;;;;;4.78;1.83;;;22.70;1.00;;;;;;7392800;19;20070;-68
2023/07/05 05:30:14;;;;;;;4.90;1.77;;;24.40;1.00;;;;;;7393223;19;20018;-68
2023/07/05 05:32:45;;;;;;;2.97;1.95;;;22.20;1.00;;;;;;7391927;19;20010;-68
2023/07/05 05:35:17;;;;;;;3.25;1.70;;;20.60;1.00;;;;;;7392294;19;20006;-68
2023/07/05 05:37:47;;;;;;;2.90;1.80;;;20.60;1.00;;;;;;7391310;19;20031;-68
2023/07/05 05:40:17;;;;;;;3.13;1.80;;;20.50;1.00;;;;;;7390816;19;20459;-68
2023/07/05 05:42:47;;;;;;;2.95;1.50;;;20.70;1.00;;;;;;7391135;19;20481;-68
2023/07/05 05:45:18;;;;;;;3.67;2.05;;;20.50;1.00;;;;;;7393242;19;20332;-68
2023/07/05 05:47:48;;;;;;;2.80;1.52;;;20.40;1.00;;;;;;7391623;19;20023;-68
2023/07/05 05:50:22;;;;;;;5.78;2.13;;;20.30;1.00;;;;;;7391153;19;20010;-68
2023/07/05 05:52:52;;;;;;;3.10;1.60;;;20.50;1.00;;;;;;7390867;19;20030;-68
2023/07/05 05:55:22;;;;;;;2.88;1.95;;;20.30;1.00;;;;;;7390755;19;20010;-69
2023/07/05 05:57:52;;;;;;;3.80;1.60;;;20.30;1.00;;;;;;7389974;19;20039;-67
2023/07/05 06:00:23;;;;;;;5.30;1.60;;;20.30;1.00;;;;;;7389422;19;20099;-68
2023/07/05 06:02:53;;;;;;;2.83;1.55;;;20.50;1.00;;;;;;7391383;19;20019;-68
2023/07/05 06:05:26;;;;;;;4.63;2.08;;;20.70;1.00;;;;;;7390282;19;20038;-68
2023/07/05 06:07:56;;;;;;;3.33;1.92;;;20.60;1.00;;;;;;7390250;19;20019;-68
2023/07/05 06:10:26;;;;;;;4.32;1.90;;;20.40;1.00;;;;;;7390000;19;20367;-67
2023/07/05 06:12:56;;;;;;;3.30;1.67;;;20.30;1.00;;;;;;7389709;19;20479;-68
2023/07/05 06:15:26;;;;;;;5.55;2.00;;;20.10;1.00;;;;;;7390257;19;20084;-68
2023/07/05 06:17:56;;;;;;;3.85;2.47;;;19.70;1.00;;;;;;7389842;19;20392;-67
2023/07/05 06:20:33;;;;;;;7.60;2.35;;;18.70;1.00;;;;;;7389761;19;20466;-67
2023/07/05 06:23:04;;;;;;;2.47;2.10;;;18.50;1.00;;;;;;7390321;19;20011;-68
2023/07/05 06:25:34;;;;;;;2.92;2.10;;;18.30;1.00;;;;;;7389244;19;20392;-67
2023/07/05 06:28:04;;;;;;;2.92;1.73;;;18.20;1.00;;;;;;7389707;19;20011;-67
2023/07/05 06:30:34;;;;;;;5.80;2.15;;;18.30;1.00;;;;;;7390756;19;20007;-68
2023/07/05 06:33:04;;;;;;;4.03;2.42;;;18.40;1.00;;;;;;7388921;19;20010;-67
2023/07/05 06:35:37;;;;;;;9.60;2.83;;;18.20;1.00;;;;;;7393500;19;20011;-68
2023/07/05 06:38:07;;;;;;;5.80;2.05;;;17.80;4.50;;;;;;7389617;19;20018;-67
2023/07/05 06:40:36;;;;;;;5.30;1.85;;;17.30;8.90;;;;;;7388997;19;20367;-67
2023/07/05 06:43:07;;;;;;;3.10;1.77;;;17.20;11.10;;;;;;7389154;19;20040;-67
2023/07/05 06:45:37;;;;;;;3.35;1.95;;;17.30;12.30;;;;;;7390939;19;20079;-66
2023/07/05 06:48:07;;;;;;;3.95;2.05;;;17.30;11.00;;;;;;7390386;19;20011;-67
2023/07/05 06:50:40;;;;;;;4.55;2.03;;;17.20;9.00;;;;;;7388797;19;20411;-67
2023/07/05 06:53:10;;;;;;;5.10;2.30;;;17.30;10.40;;;;;;7389775;19;20017;-66
2023/07/05 06:56:00;;;;;;;4.50;1.88;;;17.30;11.20;;;;;;7388963;19;20323;-67
2023/07/05 06:58:30;;;;;;;5.90;2.28;;;17.30;11.10;;;;;;7389030;19;20471;-67
2023/07/05 07:01:01;;;;;;;2.85;2.00;;;17.30;12.80;;;;;;7388457;19;20025;-66
2023/07/05 07:03:33;;;;;;;4.43;1.83;;;17.40;13.00;;;;;;7389485;19;20014;-67
2023/07/05 07:06:06;;;;;;;4.20;1.80;;;17.20;8.40;;;;;;7388583;19;20078;-67
2023/07/05 07:08:38;;;;;;;2.88;1.90;;;17.20;8.80;;;;;;7389448;19;20034;-67
2023/07/05 07:11:10;;;;;;;3.40;2.00;;;17.20;11.00;;;;;;7388103;19;20073;-67
2023/07/05 07:13:40;;;;;;;9.10;1.70;;;17.10;10.60;;;;;;7388344;19;20491;-68
2023/07/05 07:16:13;;;;;;;2.38;1.60;;;17.30;14.00;;;;;;7386850;19;20082;-68
2023/07/05 07:18:46;;;;;;;2.60;1.73;;;17.30;13.60;;;;;;7385885;19;20010;-67
2023/07/05 07:21:21;;;;;;;5.27;1.80;;;17.30;10.20;;;;;;7388559;19;20038;-67
2023/07/05 07:23:51;;;;;;;;;;;17.40;9.20;;;;;;7389139;19;20708;-68
2023/07/05 07:26:24;;;;;;;3.33;1.73;;;17.50;9.60;;;;;;7389015;19;19919;-67
2023/07/05 07:28:56;;;;;;;3.67;1.60;;;17.40;6.40;;;;;;7388103;19;20024;-68
2023/07/05 07:31:29;;;;;;;3.55;1.70;;;17.50;5.40;;;;;;7387986;19;20389;-68
2023/07/05 07:34:00;;;;;;;5.47;1.75;;;17.80;6.40;;;;;;7388477;19;20014;-68
2023/07/05 07:36:34;;;;;;;3.47;1.95;;;18.10;5.80;;;;;;7388550;19;20117;-68
2023/07/05 07:39:05;;;;;;;2.97;2.03;;;17.90;4.60;;;;;;7387328;19;20027;-68
2023/07/05 07:41:37;;;;;;;2.33;1.77;;;17.90;6.50;;;;;;7388745;19;20015;-67
2023/07/05 07:44:09;;;;;;;2.83;2.00;;;17.90;3.60;;;;;;7386741;19;20017;-67
2023/07/05 07:46:41;;;;;;;3.67;2.00;;;18.30;7.60;;;;;;7391549;19;20023;-67
2023/07/05 07:49:12;;;;;;;4.47;1.63;;;18.90;4.50;;;;;;7387436;19;20070;-67
2023/07/05 07:51:46;;;;;;;3.03;1.75;;;19.20;1.00;;;;;;7390054;19;20014;-68
2023/07/05 07:54:18;;;;;;;2.60;1.80;;;18.40;1.00;;;;;;7387648;19;20018;-68
2023/07/05 07:56:49;;;;;;;3.72;2.25;;;18.20;1.90;;;;;;7387604;19;20038;-67
2023/07/05 07:59:19;;;;;;;3.30;1.70;;;18.00;1.70;;;;;;7386420;19;20014;-67
2023/07/05 08:01:50;;;;;;;2.80;1.98;;;17.70;3.20;;;;;;7390238;19;20030;-68
2023/07/05 08:04:20;;;;;;;3.42;2.17;;;17.80;1.00;;;;;;7386979;19;20010;-67
2023/07/05 08:06:54;;;;;;;3.40;1.83;;;17.70;1.00;;;;;;7387029;19;20014;-67
2023/07/05 08:09:27;;;;;;;3.22;2.10;;;18.20;1.00;;;;;;7386440;19;20017;-67
2023/07/05 08:11:57;;;;;;;3.17;1.98;;;18.20;1.00;;;;;;7389384;19;20430;-68
2023/07/05 08:14:28;;;;;;;3.78;2.60;;;18.00;1.00;;;;;;7386627;19;20517;-68
2023/07/05 08:16:58;;;;;;;3.90;2.30;;;17.90;1.00;;;;;;7386345;19;20042;-66
2023/07/05 08:19:28;;;;;;;4.85;2.38;;;17.70;1.00;;;;;;7385789;19;20011;-67
2023/07/05 08:22:02;;;;;;;3.13;2.35;;;17.90;1.00;;;;;;7389295;19;20018;-68
2023/07/05 08:24:33;;;;;;;5.93;3.15;;;17.80;1.00;;;;;;7386524;19;20014;-68
2023/07/05 08:27:03;;;;;;;4.80;2.65;;;17.70;1.00;;;;;;7386388;19;20027;-67
2023/07/05 08:29:33;;;;;;;4.80;3.17;;;17.80;1.00;;;;;;7387487;19;20014;-67
2023/07/05 08:32:03;;;;;;;3.35;2.78;;;17.90;1.00;;;;;;7395054;19;20481;-67
2023/07/05 08:34:34;;;;;;;5.88;3.15;;;17.60;1.00;;;;;;7392906;19;20010;-68
2023/07/05 08:37:07;;;;;;;6.65;3.58;;;17.50;1.00;;;;;;7393492;19;20423;-66
2023/07/05 08:39:37;;;;;;;5.40;2.85;;;17.70;1.00;;;;;;7392764;19;20077;-68
2023/07/05 08:42:42;;;;;;;4.22;2.97;;;17.40;1.00;;;;;;7396187;19;20011;-68
2023/07/05 08:45:20;;;;;;;6.60;3.33;;;17.90;1.00;;;;;;7392782;19;20018;-67
2023/07/05 08:47:53;;;;;;;4.90;3.08;;;17.70;1.00;;;;;;7391772;19;20541;-69
2023/07/05 08:50:30;;;;;;;6.13;3.35;;;18.10;1.00;;;;;;7392709;19;20019;-68
2023/07/05 08:53:13;;;;;;;4.22;2.67;;;18.10;1.00;;;;;;7393467;19;20026;-68
2023/07/05 08:55:52;;;;;;;4.75;3.20;;;18.60;1.00;;;;;;7392669;19;20032;-67
2023/07/05 08:58:28;;;;;;;6.55;2.97;;;18.60;1.00;;;;;;7393429;19;20015;-67
2023/07/05 09:01:03;;;;;;;4.93;2.78;;;19.20;1.00;;;;;;7390751;19;20666;-67
2023/07/05 09:03:34;;;;;;;5.00;2.80;;;19.60;1.00;;;;;;7392787;19;20015;-67
2023/07/05 09:06:22;;;;;;;5.93;3.25;;;19.30;1.00;;;;;;7396563;19;20014;-68
2023/07/05 09:09:10;;;;;;;4.75;3.10;;;19.70;1.00;;;;;;7391776;19;20014;-68
2023/07/05 09:11:52;;;;;;;5.43;3.22;;;19.80;1.00;;;;;;7391322;19;20331;-68
2023/07/05 09:14:36;;;;;;;4.38;3.08;;;19.20;1.00;;;;;;7392802;19;20400;-68
2023/07/05 09:17:11;;;;;;;5.03;3.40;;;19.20;1.00;;;;;;7392806;19;20038;-68
2023/07/05 09:19:51;;;;;;;5.35;2.97;;;20.00;1.00;;;;;;7391870;19;20470;-68
2023/07/05 09:22:26;;;;;;;5.00;3.33;;;19.30;1.00;;;;;;7394860;19;20147;-66
2023/07/05 09:24:59;;;;;;;4.65;3.45;;;19.90;1.00;;;;;;7391655;19;20514;-67
2023/07/05 09:27:33;;;;;;;5.68;3.58;;;19.80;1.00;;;;;;7391073;19;20051;-67
2023/07/05 09:30:08;;;;;;;5.40;3.60;;;19.90;1.00;;;;;;7393644;19;20022;-69
2023/07/05 09:32:40;;;;;;;5.38;3.67;;;19.80;1.00;;;;;;7394562;19;20010;-68
2023/07/05 09:35:18;;;;;;;6.32;4.22;;;19.80;1.00;;;;;;7390384;19;20007;-68
2023/07/05 09:37:56;;;;;;;6.20;3.53;;;20.30;1.00;;;;;;7392042;19;20027;-69
2023/07/05 09:40:33;;;;;;;4.57;3.53;;;20.60;1.00;;;;;;7389705;19;20018;-70
2023/07/05 09:43:09;;;;;;;4.15;3.00;;;19.80;1.00;;;;;;7393860;19;20085;-68
2023/07/05 09:45:39;;;;;;;6.60;3.75;;;20.10;1.00;;;;;;7393653;19;20038;-68
2023/07/05 09:48:15;;;;;;;7.18;3.83;;;20.00;1.00;;;;;;7390607;19;20845;-70
2023/07/05 09:50:49;;;;;;;5.05;3.15;;;20.40;1.00;;;;;;7390228;19;20018;-70
2023/07/05 09:53:40;;;;;;;6.15;3.33;;;20.90;1.00;;;;;;7391410;19;20451;-69
2023/07/05 09:56:15;;;;;;;6.45;3.10;;;21.00;1.00;;;;;;7391605;19;20019;-69
2023/07/05 09:58:48;;;;;;;4.35;3.13;;;20.60;1.00;;;;;;7389517;19;20022;-70
2023/07/05 10:01:21;;;;;;;4.70;3.60;;;21.00;1.00;;;;;;7390966;19;20014;-68
2023/07/05 10:03:54;;;;;;;4.33;3.20;;;20.80;1.00;;;;;;7390863;19;20086;-70
2023/07/05 10:06:27;;;;;;;5.03;3.53;;;20.90;1.00;;;;;;7390371;19;20048;-70
2023/07/05 10:08:58;;;;;;;5.32;3.13;;;21.50;1.00;;;;;;7394938;19;20021;-69
2023/07/05 10:11:33;;;;;;;4.75;3.30;;;21.30;1.00;;;;;;7389518;19;20010;-69
2023/07/05 10:14:15;;;;;;;4.20;3.38;;;21.30;1.00;;;;;;7390488;19;20054;-70
2023/07/05 10:16:51;;;;;;;5.13;3.38;;;21.60;1.00;;;;;;7392970;19;20410;-70
2023/07/05 10:19:27;;;;;;;6.70;3.22;;;21.00;1.00;;;;;;7389891;19;20021;-70
2023/07/05 10:22:06;;;;;;;5.75;3.45;;;21.50;1.00;;;;;;7388119;19;20011;-70
2023/07/05 10:24:44;;;;;;;5.05;3.30;;;21.70;1.00;;;;;;7389232;19;20031;-69
2023/07/05 10:27:25;;;;;;;3.97;2.67;;;22.00;1.00;;;;;;7393942;19;20018;-69
2023/07/05 10:30:03;;;;;;;4.20;3.00;;;21.80;1.00;;;;;;7391823;19;20015;-70
2023/07/05 10:32:33;;;;;;;4.43;3.03;;;21.40;1.00;;;;;;7392917;19;20088;-69
2023/07/05 10:35:04;;;;;;;6.63;2.88;;;21.20;1.00;;;;;;7389139;19;20031;-69
2023/07/05 10:37:37;;;;;;;4.28;3.28;;;21.10;1.00;;;;;;7390076;19;20019;-70
2023/07/05 10:40:11;;;;;;;4.40;3.10;;;21.70;1.00;;;;;;7389042;19;20014;-70
2023/07/05 10:42:49;;;;;;;4.50;2.83;;;21.40;1.00;;;;;;7389507;19;20356;-69
2023/07/05 10:45:22;;;;;;;5.80;2.42;;;21.00;1.00;;;;;;7390047;19;20366;-70
2023/07/05 10:47:54;;;;;;;3.60;2.70;;;20.80;1.00;;;;;;7389046;19;20025;-70
2023/07/05 10:50:30;;;;;;;4.28;2.70;;;21.10;1.00;;;;;;7388405;19;20106;-70
2023/07/05 10:53:06;;;;;;;3.85;2.90;;;21.70;1.00;;;;;;7393596;19;20019;-70
2023/07/05 10:55:41;;;;;;;4.95;2.88;;;21.60;1.00;;;;;;7388789;19;20404;-71
2023/07/05 10:58:17;;;;;;;3.38;2.20;;;22.50;1.00;;;;;;7389702;19;20038;-70
2023/07/05 11:01:00;;;;;;;7.75;2.30;;;22.10;1.00;;;;;;7390899;19;20019;-70
2023/07/05 11:03:41;;;;;;;3.40;2.15;;;21.40;1.00;;;;;;7388387;19;20021;-70
2023/07/05 11:06:13;;;;;;;4.65;2.63;;;22.20;1.00;;;;;;7388834;19;20022;-68
2023/07/05 11:08:45;;;;;;;3.00;2.10;;;22.40;1.00;;;;;;7388156;19;20035;-70
2023/07/05 11:11:19;;;;;;;3.53;2.10;;;22.80;1.00;;;;;;7386056;19;20019;-69
2023/07/05 11:13:53;;;;;;;3.33;2.13;;;21.30;1.00;;;;;;7388155;19;20019;-69
2023/07/05 11:16:26;;;;;;;4.45;2.40;;;21.70;1.00;;;;;;7384037;19;20053;-71
2023/07/05 11:19:02;;;;;;;2.65;1.83;;;21.40;1.00;;;;;;7388272;19;20034;-72
2023/07/05 11:21:42;;;;;;;4.85;2.40;;;21.20;1.00;;;;;;7387097;19;20033;-71
2023/07/05 11:24:40;;;;;;;4.82;1.92;;;21.20;1.00;;;;;;7385371;19;20022;-70
2023/07/05 11:27:40;;;;;;;4.88;2.35;;;21.10;1.00;;;;;;7388299;19;20018;-71
2023/07/05 11:30:44;;;;;;;5.72;1.90;;;21.80;1.00;;;;;;7389514;19;20031;-70
2023/07/05 11:33:23;;;;;;;3.17;2.10;;;21.20;1.00;;;;;;7390891;19;20021;-69
2023/07/05 11:35:55;;;;;;;6.22;2.00;;;21.90;1.00;;;;;;7386311;19;20018;-70
2023/07/05 11:39:07;;;;;;;5.22;2.00;;;22.00;1.00;;;;;;7387189;19;20031;-70
2023/07/05 11:41:40;;;;;;;2.60;1.95;;;21.20;1.00;;;;;;7385963;19;20007;-69
2023/07/05 11:44:27;;;;;;;3.75;1.80;;;22.30;1.00;;;;;;7386661;19;20102;-70
2023/07/05 11:47:01;;;;;;;2.50;1.67;;;22.50;1.00;;;;;;7386633;19;20015;-71
2023/07/05 11:49:35;;;;;;;2.92;2.00;;;22.40;1.00;;;;;;7386174;19;20014;-68
2023/07/05 11:52:13;;;;;;;4.90;2.00;;;22.00;1.00;;;;;;7387994;19;20516;-70
2023/07/05 11:55:01;;;;;;;4.38;1.88;;;22.20;1.00;;;;;;7385779;19;20020;-69
2023/07/05 11:57:37;;;;;;;6.30;2.00;;;22.50;1.00;;;;;;7386750;19;20487;-70
2023/07/05 12:00:18;;;;;;;5.22;1.90;;;21.40;1.00;;;;;;7387188;19;20018;-69
2023/07/05 12:02:58;;;;;;;3.72;1.92;;;21.10;1.00;;;;;;7388140;19;20016;-69
2023/07/05 12:05:31;;;;;;;5.18;2.10;;;21.50;1.00;;;;;;7390389;19;20026;-69
2023/07/05 12:08:07;;;;;;;3.97;2.15;;;21.50;1.00;;;;;;7393074;19;20022;-69
2023/07/05 12:10:38;;;;;;;3.42;2.10;;;21.40;1.00;;;;;;7392490;19;20015;-69
2023/07/05 12:13:09;;;;;;;3.28;2.08;;;21.50;1.00;;;;;;7397386;19;20023;-68
2023/07/05 12:15:39;;;;;;;3.60;2.08;;;21.40;1.00;;;;;;7393255;19;20028;-68
2023/07/05 12:18:16;;;;;;;3.70;2.10;;;21.90;1.00;;;;;;7393895;19;20533;-69
2023/07/05 12:20:53;;;;;;;2.33;1.73;;;21.90;1.00;;;;;;7392531;19;20011;-70
2023/07/05 12:23:28;;;;;;;3.83;1.77;;;21.90;1.00;;;;;;7394177;19;20471;-69
2023/07/05 12:26:01;;;;;;;3.30;1.95;;;22.10;1.00;;;;;;7393864;19;20037;-70
2023/07/05 12:28:35;;;;;;;3.10;2.05;;;22.40;1.00;;;;;;7393880;19;20031;-69
2023/07/05 12:31:11;;;;;;;2.67;1.83;;;20.80;1.00;;;;;;7396747;19;20018;-69
2023/07/05 12:33:54;;;;;;;2.88;1.50;;;21.80;1.00;;;;;;7394175;19;20006;-71
2023/07/05 12:36:25;;;;;;;2.83;1.92;;;22.10;1.00;;;;;;7392831;19;20486;-69
2023/07/05 12:39:09;;;;;;;3.75;1.98;;;22.30;1.00;;;;;;7386593;19;20014;-70
2023/07/05 12:41:39;;;;;;;5.38;1.77;;;21.60;1.00;;;;;;7395023;19;20094;-70
2023/07/05 12:44:14;;;;;;;2.63;1.50;;;21.30;1.00;;;;;;7393260;19;20031;-69
2023/07/05 12:46:45;;;;;;;5.78;1.48;;;22.20;1.00;;;;;;7394754;19;20015;-70
2023/07/05 12:49:26;;;;;;;3.13;1.60;;;21.90;1.00;;;;;;7393106;19;20033;-69
2023/07/05 12:51:58;;;;;;;2.65;1.80;;;22.00;1.00;;;;;;7392631;19;20033;-69
2023/07/05 12:54:29;;;;;;;3.13;1.65;;;21.00;1.00;;;;;;7390916;19;20014;-70
2023/07/05 12:56:59;;;;;;;3.90;2.20;;;21.40;1.00;;;;;;7390128;19;20042;-69
2023/07/05 12:59:32;;;;;;;2.72;1.67;;;21.50;1.00;;;;;;7392438;19;20011;-69
2023/07/05 13:02:19;;;;;;;4.07;1.42;;;21.70;1.00;;;;;;7391140;19;20010;-68
2023/07/05 13:04:52;;;;;;;8.10;1.80;;;21.80;1.00;;;;;;7388117;19;20025;-69
2023/07/05 13:07:25;;;;;;;2.75;1.73;;;21.80;1.00;;;;;;7389777;19;20014;-69
2023/07/05 13:10:03;;;;;;;2.95;1.70;;;22.00;1.00;;;;;;7390840;19;20015;-69
2023/07/05 13:12:47;;;;;;;3.88;1.45;;;21.80;1.00;;;;;;7390712;19;20018;-70
2023/07/05 13:15:17;;;;;;;;;;;22.40;1.00;;;;;;7392564;19;20018;-69
2023/07/05 13:17:48;;;;;;;2.25;1.35;;;22.80;1.00;;;;;;7388901;19;20363;-70
2023/07/05 13:20:24;;;;;;;5.03;1.70;;;22.90;1.00;;;;;;7387172;19;20030;-70
2023/07/05 13:22:57;;;;;;;2.42;1.75;;;22.20;1.00;;;;;;7389466;19;20010;-70
2023/07/05 13:25:34;;;;;;;4.20;2.20;;;22.30;1.00;;;;;;7391017;19;20018;-69
2023/07/05 13:28:05;;;;;;;3.13;1.27;;;21.80;1.00;;;;;;7392479;19;20243;-69
2023/07/05 13:30:34;;;;;;;2.33;1.50;;;21.70;1.00;;;;;;7394633;19;20027;-71
2023/07/05 13:33:05;;;;;;;2.67;1.60;;;22.50;1.00;;;;;;7393878;19;20096;-70